Terminal Aerodrome Forecast
Issued by NWS

Home | Current Version | Previous Version | Graphics & Text | Print | Product List | Glossary On
Versions: 1 2 3 4 5 6 7 8 9 10 11 12 13 14 15 16 17 18 19 20 21 22 23
000
FTUS43 KBIS 282200 AAA
TAFMOT
TAF AMD
KMOT 282224Z 2822/2918 01011G18KT P6SM VCSH BKN008 OVC050
     FM290100 04010KT 5SM BR VCSH BKN009 OVC020
     FM290400 05009KT 4SM BR SCT004 OVC007=

USA.gov is the U.S. government's official web portal to all federal, state and local government web resources and services.